Latest Coastal Weather Observations for Low Isles

IDQ60701

Issued at 2:51 pm EST Tuesday 25 July 2017 (issued every 10 minutes, with the page automatically refreshed every 10 minutes)

About coastal observations | Map of coastal stations | Coastal observations for QLD | Marine services | Other Formats
Station Details ID: 031037 Name: LOW ISLES LIGHTHOUSE Lat: -16.38 Lon: 145.56 Height: 2.9 m
Data from the previous 72 hours. | See also: Recent months at Low Isles
Date/Time
EST
Temp
°C
Wind Pressure Rain since
9am
mm
Weather Cloud Vis
km
Sea
Height
m
Swell
Dir  Spd
kts
Gust
kts
hPa Trend Height
m
Period
s
Dir
25/02:30pm 25.6 SE 19 23 1016.5 - 0.0 - - - - - - -
25/02:00pm 25.6 SE 20 24 1016.8 - 0.0 - - - - - - -
25/01:30pm 25.4 SE 19 23 1017.1 - 0.0 - - - - - - -
25/01:00pm 26.0 SE 19 21 1017.4 - 0.0 - - - - - - -
25/12:30pm 25.6 SE 20 22 1017.7 - 0.0 - - - - - - -
25/12:00pm 24.7 SSE 19 22 1018.0 - 0.0 - - - - - - -
25/11:30am 24.4 SSE 16 18 1018.6 - 0.0 - - - - - - -
25/11:00am 24.2 SSE 16 19 1019.0 - 0.0 - - - - - - -
25/10:30am 24.1 SSE 17 19 1019.1 - 0.0 - - - - - - -
25/10:00am 23.8 SSE 16 18 1019.5 - 0.0 - - - - - - -
25/09:30am 23.5 SSE 15 17 1019.5 - 0.0 - - - - - - -
25/09:00am 23.0 S 13 15 1019.3 - 0.0 Haze Cloudy 14 - - - -
25/08:30am 23.0 SSE 15 17 1019.1 - 0.0 - - - - - - -
25/08:00am 23.1 S 15 16 1018.8 - 0.0 - - - - - - -
25/07:30am 22.9 S 13 15 1018.6 - 0.0 - - - - - - -
25/07:00am 23.4 SE 16 19 1018.4 - 0.0 - - - - - - -
25/06:30am 23.3 SE 18 20 1018.0 - 0.0 - - - - - - -
25/06:00am 23.2 SE 18 21 1017.7 - 0.0 - - - - - - -
25/05:30am 23.1 SE 18 22 1017.5 - 0.0 - - - - - - -
25/05:00am 23.1 SE 18 21 1017.6 - 0.0 - - - - - - -
25/04:30am 23.2 SE 18 24 1017.5 - 0.0 - - - - - - -
25/04:00am 23.3 SE 16 19 1017.4 - 0.0 - - - - - - -
25/03:30am 23.3 ESE 18 22 1017.3 - 0.0 - - - - - - -
25/03:00am 23.0 S 15 18 1017.2 - 0.0 - - - - - - -
25/02:30am 22.9 SSE 15 17 1017.2 - 0.0 - - - - - - -
25/02:00am 23.0 SSE 15 18 1017.4 - 0.0 - - - - - - -
25/01:30am 22.7 SSE 14 17 1017.6 - 0.0 - - - - - - -
25/01:00am 22.7 SSE 13 17 1017.9 - 0.0 - - - - - - -
25/12:30am 22.7 S 11 14 1018.2 - 0.0 - - - - - - -
25/12:00am 22.8 S 12 15 1018.2 - 0.0 - - - - - - -
 
Date/Time
EST
Temp
°C
Wind Pressure Rain since
9am
mm
Weather Cloud Vis
km
Sea
Height
m
Swell
Dir  Spd
kts
Gust
kts
hPa Trend Height
m
Period
s
Dir
24/11:30pm 22.8 S 13 16 1018.5 - 0.0 - - - - - - -
24/11:00pm 22.7 S 13 15 1018.6 - 0.0 - - - - - - -
24/10:30pm 22.7 S 13 16 1018.6 - 0.0 - - - - - - -
24/10:00pm 22.8 SSE 15 17 1018.4 - 0.0 - - - - - - -
24/09:30pm 22.7 SSE 19 22 1018.3 - 0.0 - - - - - - -
24/09:00pm 22.8 SSE 19 22 1018.0 - 0.0 - - - - - - -
24/08:30pm 22.9 SSE 19 22 1018.0 - 0.0 - - - - - - -
24/08:00pm 22.9 SE 18 21 1017.9 - 0.0 - - - - - - -
24/07:30pm 23.0 SE 19 21 1017.7 - 0.0 - - - - - - -
24/07:00pm 23.0 SE 17 19 1017.4 - 0.0 - - - - - - -
24/06:30pm 23.2 SE 16 19 1017.0 - 0.0 - - - - - - -
24/06:00pm 23.2 SSE 14 16 1016.7 - 0.0 - - - - - - -
24/05:30pm 23.3 SSE 15 18 1016.5 - 0.0 - - - - - - -
24/05:00pm 23.8 SE 16 19 1016.3 - 0.0 - - - - - - -
24/04:30pm 24.1 SE 17 20 1016.3 - 0.0 - - - - - - -
24/04:00pm 24.7 SE 18 21 1016.0 - 0.0 - - - - - - -
24/03:30pm 25.2 SE 16 19 1016.0 - 0.0 - - - - - - -
24/03:00pm 25.5 SE 17 20 1016.0 - 0.0 - - - - - - -
24/02:30pm 25.9 SE 17 19 1016.2 - 0.0 - - - - - - -
24/02:00pm 25.5 SE 16 18 1016.4 - 0.0 - - - - - - -
24/01:30pm 26.5 SE 17 19 1016.8 - 0.0 - - - - - - -
24/01:00pm 26.3 SE 18 21 1017.1 - 0.0 - - - - - - -
24/12:30pm 26.2 SE 17 20 1017.4 - 0.0 - - - - - - -
24/12:00pm 26.3 SE 17 19 1017.7 - 0.0 - - - - - - -
24/11:30am 25.5 SSE 15 18 1018.4 - 0.0 - - - - - - -
24/11:00am 24.5 SSE 14 16 1018.8 - 0.0 - - - - - - -
24/10:30am 24.1 SSE 15 17 1019.1 - 0.0 - - - - - - -
24/10:00am 23.6 SSE 15 17 1019.1 - 0.0 - - - - - - -
24/09:30am 23.3 SSE 15 17 1019.0 - 0.0 - - - - - - -
24/09:00am 22.9 SSE 16 17 1018.8 - 0.0 Haze Partly cloudy 13 - - - -
24/08:30am 22.7 SSE 15 17 1018.7 - 0.0 - - - - - - -
24/08:00am 22.6 SSE 15 17 1018.4 - 0.0 - - - - - - -
24/07:30am 22.5 SSE 18 19 1018.1 - 0.0 - - - - - - -
24/07:00am 22.5 SSE 18 20 1017.7 - 0.0 - - - - - - -
24/06:30am 22.5 SSE 17 20 1017.4 - 0.0 - - - - - - -
24/06:00am 22.5 SSE 18 21 1017.0 - 0.0 - - - - - - -
24/05:30am 22.6 SSE 18 20 1016.8 - 0.0 - - - - - - -
24/05:00am 22.5 SSE 16 19 1016.6 - 0.0 - - - - - - -
24/04:30am 22.5 SSE 15 18 1016.6 - 0.0 - - - - - - -
24/04:00am 22.6 SSE 15 17 1016.5 - 0.0 - - - - - - -
24/03:30am 22.6 S 15 17 1016.3 - 0.0 - - - - - - -
24/03:00am 22.5 SSE 14 16 1016.4 - 0.0 - - - - - - -
24/02:30am 22.6 SSE 14 15 1016.6 - 0.0 - - - - - - -
24/02:00am 22.5 SSE 14 15 1016.9 - 0.0 - - - - - - -
24/01:30am 22.6 SSE 15 17 1017.1 - 0.0 - - - - - - -
24/01:00am 22.6 SSE 13 15 1017.2 - 0.0 - - - - - - -
24/12:30am 22.6 SSE 14 17 1017.4 - 0.0 - - - - - - -
24/12:00am 22.6 SSE 16 18 1017.4 - 0.0 - - - - - - -
 
Date/Time
EST
Temp
°C
Wind Pressure Rain since
9am
mm
Weather Cloud Vis
km
Sea
Height
m
Swell
Dir  Spd
kts
Gust
kts
hPa Trend Height
m
Period
s
Dir
23/11:30pm 22.7 SSE 16 17 1017.5 - 0.0 - - - - - - -
23/11:00pm 22.7 SSE 15 18 1017.8 - 0.0 - - - - - - -
23/10:30pm 22.8 SSE 15 16 1017.7 - 0.0 - - - - - - -
23/10:00pm 22.9 SSE 15 17 1017.7 - 0.0 - - - - - - -
23/09:30pm 22.9 SE 16 18 1017.7 - 0.0 - - - - - - -
23/09:00pm 23.0 SSE 16 18 1017.4 - 0.0 - - - - - - -
23/08:30pm 23.0 SSE 16 17 1017.3 - 0.0 - - - - - - -
23/08:00pm 23.2 SE 16 18 1017.2 - 0.0 - - - - - - -
23/07:30pm 23.3 SE 15 19 1016.9 - 0.0 - - - - - - -
23/07:00pm 23.2 SE 16 20 1016.5 - 0.0 - - - - - - -
23/06:30pm 23.2 ESE 16 19 1016.2 - 0.0 - - - - - - -
23/06:00pm 23.3 ESE 16 20 1015.8 - 0.0 - - - - - - -
23/05:30pm 23.6 ESE 16 20 1015.7 - 0.0 - - - - - - -
23/05:00pm 23.8 SE 16 19 1015.5 - 0.0 - - - - - - -
23/04:30pm 24.1 SE 17 20 1015.4 - 0.0 - - - - - - -
23/04:00pm 24.4 SE 17 20 1015.5 - 0.0 - - - - - - -
23/03:30pm 24.6 SE 17 19 1015.6 - 0.0 - - - - - - -
23/03:00pm 25.7 SE 15 18 1015.6 - 0.0 - - - - - - -
23/02:30pm 25.7 SE 14 17 1015.9 - 0.0 - - - - - - -
23/02:00pm 25.5 SE 13 15 1016.2 - 0.0 - - - - - - -
23/01:30pm 25.2 SE 13 16 1016.5 - 0.0 - - - - - - -
23/01:00pm 25.4 SE 14 16 1016.9 - 0.0 - - - - - - -
23/12:30pm 25.5 SSE 17 20 1017.0 - 0.0 - - - - - - -
23/12:00pm 24.5 SSE 16 17 1017.6 - 0.0 - - - - - - -
23/11:30am 24.4 SSE 15 19 1018.1 - 0.0 - - - - - - -
23/11:00am 24.0 SSE 15 16 1018.5 - 0.0 - - - - - - -
23/10:30am 23.4 SSE 16 18 1018.6 - 0.0 - - - - - - -
23/10:00am 23.3 SSE 16 19 1018.8 - 0.0 - - - - - - -
23/09:30am 23.0 S 15 16 1018.9 - 0.0 - - - - - - -
23/09:00am 22.9 S 14 16 1018.8 - 0.0 Distant precip. Mostly cloudy 12 - - - -
23/08:30am 22.7 S 14 15 1018.7 - 0.0 - - - - - - -
23/08:00am 22.7 SSE 13 15 1018.4 - 0.0 - - - - - - -
23/07:30am 22.5 SSE 14 16 1018.0 - 0.0 - - - - - - -
23/07:00am 22.4 SSE 15 18 1017.7 - 0.0 - - - - - - -
23/06:30am 22.4 SSE 16 19 1017.4 - 0.0 - - - - - - -
23/06:00am 22.3 SSE 15 18 1017.0 - 0.0 - - - - - - -
23/05:30am 22.3 SSE 16 17 1016.9 - 0.0 - - - - - - -
23/05:00am 22.3 SSE 17 18 1016.6 - 0.0 - - - - - - -
23/04:30am 22.1 SSE 17 19 1016.6 - 0.0 - - - - - - -
23/04:00am 22.2 SSE 16 18 1016.6 - 0.0 - - - - - - -
23/03:30am 22.4 SSE 16 18 1016.6 - 0.0 - - - - - - -
23/03:00am 22.4 SSE 15 16 1016.7 - 0.0 - - - - - - -
23/02:30am 22.4 S 14 16 1017.1 - 0.0 - - - - - - -
23/02:00am 22.5 S 13 15 1017.4 - 0.0 - - - - - - -
23/01:30am 22.6 SSE 13 15 1017.7 - 0.0 - - - - - - -
23/01:00am 22.4 S 13 16 1017.8 - 0.0 - - - - - - -
23/12:30am 22.7 S 13 16 1018.2 - 0.0 - - - - - - -
23/12:00am 22.6 S 13 14 1018.2 - 0.0 - - - - - - -
 
Date/Time
EST
Temp
°C
Wind Pressure Rain since
9am
mm
Weather Cloud Vis
km
Sea
Height
m
Swell
Dir  Spd
kts
Gust
kts
hPa Trend Height
m
Period
s
Dir
22/11:30pm 22.6 S 13 15 1018.6 - 0.0 - - - - - - -
22/11:00pm 22.6 S 15 17 1018.8 - 0.0 - - - - - - -
22/10:30pm 22.8 S 17 19 1018.9 - 0.0 - - - - - - -
22/10:00pm 22.9 S 15 16 1018.9 - 0.0 - - - - - - -
22/09:30pm 23.0 SSE 17 19 1018.8 - 0.0 - - - - - - -
22/09:00pm 23.0 SE 15 17 1018.5 - 0.0 - - - - - - -
22/08:30pm 22.9 ESE 15 17 1018.4 - 0.0 - - - - - - -
22/08:00pm 23.1 SE 14 18 1018.1 - 0.0 - - - - - - -
22/07:30pm 23.1 SE 16 19 1017.6 - 0.0 - - - - - - -
22/07:00pm 23.0 SE 16 19 1017.3 - 0.0 - - - - - - -
22/06:30pm 23.0 SE 16 19 1016.9 - 0.0 - - - - - - -
22/06:00pm 23.2 SE 15 18 1016.5 - 0.0 - - - - - - -
22/05:30pm 23.3 SE 15 19 1016.3 - 0.0 - - - - - - -
22/05:00pm 23.6 ESE 14 19 1016.1 - 0.0 - - - - - - -
22/04:30pm 24.4 ESE 16 19 1015.8 - 0.0 - - - - - - -
22/04:00pm 25.2 SE 14 18 1016.0 - 0.0 - - - - - - -
22/03:30pm 25.0 SE 15 18 1016.1 - 0.0 - - - - - - -
22/03:00pm 25.2 SE 17 20 1016.0 - 0.0 - - - - - - -

Other Formats:

Comma delimited format used in spreadsheet applications
http://www.bom.gov.au/fwo/IDQ60701/IDQ60701.94285.axf

JavaScript Object Notation format (JSON) in row-major order
http://www.bom.gov.au/fwo/IDQ60701/IDQ60701.94285.json